< < Back
Terminal Aerodrome Forecast


Current Version              Previous Versions:   1  2  3  4  5  6  7  8  9  

Terminal Aerodrome Forecast

099
FTUS42 KTAE 012300
TAFTLH
TAF
KTLH 012334Z 0200/0224 VRB05KT P6SM SCT040 BKN250
     FM020900 11003KT 4SM BR BKN250
     FM021300 14004KT P6SM SCT050 BKN250=

Latest METAR

655
SAUS80 KWBC 020200
MTRTLH
METAR KTLH 020153Z 10003KT 10SM OVC060 24/22 A2999 RMK AO2 SLP155
T02390217


USA.gov is the U.S. government's official web portal to all federal, state and local government web resources and services.